sensor_id;sensor_type;location;lat;lon;timestamp;temperature;humidity
38265;DHT22;24062;47.480;8.768;2022-08-05T00:01:31;25.70;55.40
38265;DHT22;24062;47.480;8.768;2022-08-05T00:04:00;25.60;55.40
38265;DHT22;24062;47.480;8.768;2022-08-05T00:06:27;25.60;55.40
38265;DHT22;24062;47.480;8.768;2022-08-05T00:08:53;25.60;55.50
38265;DHT22;24062;47.480;8.768;2022-08-05T00:11:20;25.60;55.60
38265;DHT22;24062;47.480;8.768;2022-08-05T00:13:47;25.60;55.60
38265;DHT22;24062;47.480;8.768;2022-08-05T00:16:14;25.60;55.60
38265;DHT22;24062;47.480;8.768;2022-08-05T00:18:43;25.60;55.80
38265;DHT22;24062;47.480;8.768;2022-08-05T00:21:12;25.60;55.90
38265;DHT22;24062;47.480;8.768;2022-08-05T00:23:40;25.60;55.90
38265;DHT22;24062;47.480;8.768;2022-08-05T00:26:08;25.60;56.00
38265;DHT22;24062;47.480;8.768;2022-08-05T00:28:35;25.70;56.10
38265;DHT22;24062;47.480;8.768;2022-08-05T00:31:02;25.60;55.90
38265;DHT22;24062;47.480;8.768;2022-08-05T00:33:30;25.60;56.10
38265;DHT22;24062;47.480;8.768;2022-08-05T00:35:57;25.60;56.10
38265;DHT22;24062;47.480;8.768;2022-08-05T00:38:25;25.70;56.30
38265;DHT22;24062;47.480;8.768;2022-08-05T00:40:56;25.70;56.40
38265;DHT22;24062;47.480;8.768;2022-08-05T00:43:24;25.70;56.30
38265;DHT22;24062;47.480;8.768;2022-08-05T00:45:51;25.70;56.40
38265;DHT22;24062;47.480;8.768;2022-08-05T00:48:19;25.70;56.30
38265;DHT22;24062;47.480;8.768;2022-08-05T00:50:48;25.70;56.40
38265;DHT22;24062;47.480;8.768;2022-08-05T00:53:17;25.60;56.40
38265;DHT22;24062;47.480;8.768;2022-08-05T00:55:46;25.70;56.50
38265;DHT22;24062;47.480;8.768;2022-08-05T00:58:14;25.60;56.50
38265;DHT22;24062;47.480;8.768;2022-08-05T01:00:42;25.70;57.10
38265;DHT22;24062;47.480;8.768;2022-08-05T01:03:10;25.70;56.60
38265;DHT22;24062;47.480;8.768;2022-08-05T01:05:37;25.80;56.70
38265;DHT22;24062;47.480;8.768;2022-08-05T01:08:04;25.90;56.60
38265;DHT22;24062;47.480;8.768;2022-08-05T01:10:36;26.00;56.50
38265;DHT22;24062;47.480;8.768;2022-08-05T01:13:12;26.00;56.50
38265;DHT22;24062;47.480;8.768;2022-08-05T01:15:45;26.10;56.40
38265;DHT22;24062;47.480;8.768;2022-08-05T01:18:18;26.10;56.30
38265;DHT22;24062;47.480;8.768;2022-08-05T01:20:52;26.20;56.30
38265;DHT22;24062;47.480;8.768;2022-08-05T01:23:44;26.40;56.40
38265;DHT22;24062;47.480;8.768;2022-08-05T01:26:34;26.40;56.20
38265;DHT22;24062;47.480;8.768;2022-08-05T01:29:10;26.50;56.20
38265;DHT22;24062;47.480;8.768;2022-08-05T01:31:43;26.70;56.20
38265;DHT22;24062;47.480;8.768;2022-08-05T01:34:12;26.80;56.00
38265;DHT22;24062;47.480;8.768;2022-08-05T01:36:43;26.90;55.80
38265;DHT22;24062;47.480;8.768;2022-08-05T01:39:12;27.00;55.70
38265;DHT22;24062;47.480;8.768;2022-08-05T01:41:42;27.00;55.50
38265;DHT22;24062;47.480;8.768;2022-08-05T01:44:12;27.00;55.40
38265;DHT22;24062;47.480;8.768;2022-08-05T01:46:40;27.00;55.30
38265;DHT22;24062;47.480;8.768;2022-08-05T01:49:10;27.00;55.20
38265;DHT22;24062;47.480;8.768;2022-08-05T01:51:38;27.00;55.00
38265;DHT22;24062;47.480;8.768;2022-08-05T01:54:08;27.00;55.10
38265;DHT22;24062;47.480;8.768;2022-08-05T01:56:38;27.10;55.20
38265;DHT22;24062;47.480;8.768;2022-08-05T01:59:08;27.00;55.20
38265;DHT22;24062;47.480;8.768;2022-08-05T02:01:39;26.90;55.20
38265;DHT22;24062;47.480;8.768;2022-08-05T02:04:08;26.90;55.30
38265;DHT22;24062;47.480;8.768;2022-08-05T02:06:35;26.70;55.60
38265;DHT22;24062;47.480;8.768;2022-08-05T02:09:03;26.70;55.70
38265;DHT22;24062;47.480;8.768;2022-08-05T02:11:41;26.60;55.90
38265;DHT22;24062;47.480;8.768;2022-08-05T02:14:13;26.50;56.00
38265;DHT22;24062;47.480;8.768;2022-08-05T02:16:45;26.40;56.10
38265;DHT22;24062;47.480;8.768;2022-08-05T02:19:18;26.40;56.20
38265;DHT22;24062;47.480;8.768;2022-08-05T02:21:50;26.30;56.30
38265;DHT22;24062;47.480;8.768;2022-08-05T02:24:21;26.30;56.60
38265;DHT22;24062;47.480;8.768;2022-08-05T02:26:53;26.20;56.70
38265;DHT22;24062;47.480;8.768;2022-08-05T02:29:23;26.20;57.00
38265;DHT22;24062;47.480;8.768;2022-08-05T02:31:55;26.10;57.30
38265;DHT22;24062;47.480;8.768;2022-08-05T02:34:24;26.00;57.50
38265;DHT22;24062;47.480;8.768;2022-08-05T02:36:56;25.90;57.80
38265;DHT22;24062;47.480;8.768;2022-08-05T02:39:24;25.70;58.20
38265;DHT22;24062;47.480;8.768;2022-08-05T02:41:54;25.70;58.30
38265;DHT22;24062;47.480;8.768;2022-08-05T02:44:23;25.60;58.40
38265;DHT22;24062;47.480;8.768;2022-08-05T02:46:54;25.50;58.40
38265;DHT22;24062;47.480;8.768;2022-08-05T02:49:22;25.50;58.50
38265;DHT22;24062;47.480;8.768;2022-08-05T02:51:50;25.40;58.50
38265;DHT22;24062;47.480;8.768;2022-08-05T02:54:20;25.40;58.60
38265;DHT22;24062;47.480;8.768;2022-08-05T02:56:48;25.40;58.60
38265;DHT22;24062;47.480;8.768;2022-08-05T02:59:16;25.40;58.60
38265;DHT22;24062;47.480;8.768;2022-08-05T03:01:44;25.40;58.50
38265;DHT22;24062;47.480;8.768;2022-08-05T03:04:17;25.40;58.50
38265;DHT22;24062;47.480;8.768;2022-08-05T03:06:44;25.40;58.60
38265;DHT22;24062;47.480;8.768;2022-08-05T03:09:12;25.40;58.50
38265;DHT22;24062;47.480;8.768;2022-08-05T03:11:41;25.40;58.60
38265;DHT22;24062;47.480;8.768;2022-08-05T03:14:08;25.30;58.50
38265;DHT22;24062;47.480;8.768;2022-08-05T03:16:35;25.30;58.60
38265;DHT22;24062;47.480;8.768;2022-08-05T03:19:03;25.30;58.60
38265;DHT22;24062;47.480;8.768;2022-08-05T03:21:31;25.30;58.60
38265;DHT22;24062;47.480;8.768;2022-08-05T03:23:58;25.20;58.60
38265;DHT22;24062;47.480;8.768;2022-08-05T03:26:26;25.20;58.60
38265;DHT22;24062;47.480;8.768;2022-08-05T03:28:53;25.20;58.60
38265;DHT22;24062;47.480;8.768;2022-08-05T03:31:20;25.10;58.60
38265;DHT22;24062;47.480;8.768;2022-08-05T03:33:47;25.10;58.70
38265;DHT22;24062;47.480;8.768;2022-08-05T03:36:14;25.10;58.70
38265;DHT22;24062;47.480;8.768;2022-08-05T03:38:43;25.00;58.70
38265;DHT22;24062;47.480;8.768;2022-08-05T03:41:10;25.00;58.70
38265;DHT22;24062;47.480;8.768;2022-08-05T03:43:36;24.90;58.70
38265;DHT22;24062;47.480;8.768;2022-08-05T03:46:04;24.80;58.70
38265;DHT22;24062;47.480;8.768;2022-08-05T03:48:31;24.70;58.70
38265;DHT22;24062;47.480;8.768;2022-08-05T03:51:02;24.70;58.90
38265;DHT22;24062;47.480;8.768;2022-08-05T03:53:36;24.60;58.90
38265;DHT22;24062;47.480;8.768;2022-08-05T03:56:21;24.60;59.50
38265;DHT22;24062;47.480;8.768;2022-08-05T03:58:52;24.60;59.00
38265;DHT22;24062;47.480;8.768;2022-08-05T04:01:21;24.50;59.00
38265;DHT22;24062;47.480;8.768;2022-08-05T04:03:49;24.50;59.10
38265;DHT22;24062;47.480;8.768;2022-08-05T04:06:17;24.50;59.30
38265;DHT22;24062;47.480;8.768;2022-08-05T04:08:45;24.50;59.20
38265;DHT22;24062;47.480;8.768;2022-08-05T04:11:14;24.40;59.20
38265;DHT22;24062;47.480;8.768;2022-08-05T04:13:42;24.40;59.30
38265;DHT22;24062;47.480;8.768;2022-08-05T04:16:09;24.40;59.30
38265;DHT22;24062;47.480;8.768;2022-08-05T04:18:37;24.30;59.30
38265;DHT22;24062;47.480;8.768;2022-08-05T04:21:05;24.30;59.40
38265;DHT22;24062;47.480;8.768;2022-08-05T04:23:33;24.20;59.40
38265;DHT22;24062;47.480;8.768;2022-08-05T04:26:01;24.20;59.30
38265;DHT22;24062;47.480;8.768;2022-08-05T04:28:29;24.10;59.30
38265;DHT22;24062;47.480;8.768;2022-08-05T04:30:57;24.10;59.30
38265;DHT22;24062;47.480;8.768;2022-08-05T04:33:24;24.00;59.40
38265;DHT22;24062;47.480;8.768;2022-08-05T04:35:51;23.90;59.60
38265;DHT22;24062;47.480;8.768;2022-08-05T04:38:17;23.90;59.60
38265;DHT22;24062;47.480;8.768;2022-08-05T04:40:44;23.90;59.80
38265;DHT22;24062;47.480;8.768;2022-08-05T04:43:11;23.80;59.70
38265;DHT22;24062;47.480;8.768;2022-08-05T04:45:39;23.80;59.80
38265;DHT22;24062;47.480;8.768;2022-08-05T04:48:07;23.70;60.00
38265;DHT22;24062;47.480;8.768;2022-08-05T04:50:38;23.70;60.20
38265;DHT22;24062;47.480;8.768;2022-08-05T04:53:06;23.80;60.60
38265;DHT22;24062;47.480;8.768;2022-08-05T04:55:33;23.80;60.40
38265;DHT22;24062;47.480;8.768;2022-08-05T04:57:59;23.80;60.60
38265;DHT22;24062;47.480;8.768;2022-08-05T05:00:26;23.90;60.70
38265;DHT22;24062;47.480;8.768;2022-08-05T05:02:55;23.90;60.70
38265;DHT22;24062;47.480;8.768;2022-08-05T05:05:21;23.90;60.80
38265;DHT22;24062;47.480;8.768;2022-08-05T05:07:48;23.90;60.80
38265;DHT22;24062;47.480;8.768;2022-08-05T05:10:15;23.90;60.90
38265;DHT22;24062;47.480;8.768;2022-08-05T05:12:42;23.90;61.10
38265;DHT22;24062;47.480;8.768;2022-08-05T05:15:09;23.90;61.20
38265;DHT22;24062;47.480;8.768;2022-08-05T05:17:37;23.90;61.40
38265;DHT22;24062;47.480;8.768;2022-08-05T05:20:07;23.90;61.50
38265;DHT22;24062;47.480;8.768;2022-08-05T05:22:34;24.00;61.60
38265;DHT22;24062;47.480;8.768;2022-08-05T05:25:02;24.10;61.70
38265;DHT22;24062;47.480;8.768;2022-08-05T05:27:30;24.20;61.90
38265;DHT22;24062;47.480;8.768;2022-08-05T05:29:57;24.30;62.00
38265;DHT22;24062;47.480;8.768;2022-08-05T05:32:24;24.40;62.10
38265;DHT22;24062;47.480;8.768;2022-08-05T05:34:51;24.50;62.00
38265;DHT22;24062;47.480;8.768;2022-08-05T05:37:19;24.60;62.10
38265;DHT22;24062;47.480;8.768;2022-08-05T05:39:46;24.80;62.10
38265;DHT22;24062;47.480;8.768;2022-08-05T05:42:13;24.90;62.90
38265;DHT22;24062;47.480;8.768;2022-08-05T05:44:40;25.10;62.10
38265;DHT22;24062;47.480;8.768;2022-08-05T05:47:07;25.30;62.20
38265;DHT22;24062;47.480;8.768;2022-08-05T05:49:34;25.50;62.30
38265;DHT22;24062;47.480;8.768;2022-08-05T05:52:01;25.70;62.10
38265;DHT22;24062;47.480;8.768;2022-08-05T05:54:29;25.90;61.90
38265;DHT22;24062;47.480;8.768;2022-08-05T05:56:56;26.10;61.70
38265;DHT22;24062;47.480;8.768;2022-08-05T05:59:22;26.30;61.40
38265;DHT22;24062;47.480;8.768;2022-08-05T06:01:49;26.40;61.10
38265;DHT22;24062;47.480;8.768;2022-08-05T06:04:16;26.50;61.00
38265;DHT22;24062;47.480;8.768;2022-08-05T06:06:44;26.60;60.60
38265;DHT22;24062;47.480;8.768;2022-08-05T06:09:11;26.60;60.60
38265;DHT22;24062;47.480;8.768;2022-08-05T06:11:39;26.70;60.40
38265;DHT22;24062;47.480;8.768;2022-08-05T06:14:06;26.80;60.20
38265;DHT22;24062;47.480;8.768;2022-08-05T06:16:33;26.70;59.90
38265;DHT22;24062;47.480;8.768;2022-08-05T06:19:00;26.80;60.00
38265;DHT22;24062;47.480;8.768;2022-08-05T06:21:27;26.90;59.70
38265;DHT22;24062;47.480;8.768;2022-08-05T06:23:57;26.90;59.50
38265;DHT22;24062;47.480;8.768;2022-08-05T06:26:23;27.20;60.20
38265;DHT22;24062;47.480;8.768;2022-08-05T06:28:52;27.50;59.40
38265;DHT22;24062;47.480;8.768;2022-08-05T06:31:19;27.90;59.10
38265;DHT22;24062;47.480;8.768;2022-08-05T06:33:46;28.10;58.50
38265;DHT22;24062;47.480;8.768;2022-08-05T06:36:12;28.50;58.40
38265;DHT22;24062;47.480;8.768;2022-08-05T06:38:39;28.70;58.00
38265;DHT22;24062;47.480;8.768;2022-08-05T06:41:06;28.90;57.60
38265;DHT22;24062;47.480;8.768;2022-08-05T06:43:34;29.00;57.10
38265;DHT22;24062;47.480;8.768;2022-08-05T06:46:02;29.00;56.80
38265;DHT22;24062;47.480;8.768;2022-08-05T06:48:29;28.80;56.10
38265;DHT22;24062;47.480;8.768;2022-08-05T06:50:58;28.50;56.00
38265;DHT22;24062;47.480;8.768;2022-08-05T06:53:25;28.20;56.20
38265;DHT22;24062;47.480;8.768;2022-08-05T06:55:52;27.90;56.30
38265;DHT22;24062;47.480;8.768;2022-08-05T06:58:19;27.80;56.50
38265;DHT22;24062;47.480;8.768;2022-08-05T07:00:46;27.70;56.50
38265;DHT22;24062;47.480;8.768;2022-08-05T07:03:14;27.60;56.60
38265;DHT22;24062;47.480;8.768;2022-08-05T07:05:41;27.60;56.60
38265;DHT22;24062;47.480;8.768;2022-08-05T07:08:08;27.60;56.50
38265;DHT22;24062;47.480;8.768;2022-08-05T07:10:35;27.70;56.60
38265;DHT22;24062;47.480;8.768;2022-08-05T07:13:02;28.10;56.80
38265;DHT22;24062;47.480;8.768;2022-08-05T07:15:46;28.50;56.80
38265;DHT22;24062;47.480;8.768;2022-08-05T07:18:40;29.10;56.40
38265;DHT22;24062;47.480;8.768;2022-08-05T07:21:07;29.60;56.00
38265;DHT22;24062;47.480;8.768;2022-08-05T07:23:34;30.00;55.80
38265;DHT22;24062;47.480;8.768;2022-08-05T07:26:02;30.40;55.40
38265;DHT22;24062;47.480;8.768;2022-08-05T07:28:28;30.80;55.00
38265;DHT22;24062;47.480;8.768;2022-08-05T07:30:55;31.00;54.30
38265;DHT22;24062;47.480;8.768;2022-08-05T07:33:22;31.10;53.90
38265;DHT22;24062;47.480;8.768;2022-08-05T07:35:50;31.00;53.30
38265;DHT22;24062;47.480;8.768;2022-08-05T07:38:17;30.80;53.20
38265;DHT22;24062;47.480;8.768;2022-08-05T07:40:44;30.90;53.50
38265;DHT22;24062;47.480;8.768;2022-08-05T07:43:11;31.00;53.30
38265;DHT22;24062;47.480;8.768;2022-08-05T07:45:40;31.20;52.80
38265;DHT22;24062;47.480;8.768;2022-08-05T07:48:08;31.30;52.70
38265;DHT22;24062;47.480;8.768;2022-08-05T07:50:34;31.40;52.20
38265;DHT22;24062;47.480;8.768;2022-08-05T07:53:03;31.40;51.70
38265;DHT22;24062;47.480;8.768;2022-08-05T07:55:30;31.20;51.50
38265;DHT22;24062;47.480;8.768;2022-08-05T07:57:57;31.20;51.40
38265;DHT22;24062;47.480;8.768;2022-08-05T08:00:24;31.40;51.50
38265;DHT22;24062;47.480;8.768;2022-08-05T08:02:51;31.50;51.30
38265;DHT22;24062;47.480;8.768;2022-08-05T08:05:17;31.60;50.90
38265;DHT22;24062;47.480;8.768;2022-08-05T08:07:44;31.60;50.40
38265;DHT22;24062;47.480;8.768;2022-08-05T08:10:13;31.50;50.40
38265;DHT22;24062;47.480;8.768;2022-08-05T08:12:40;31.50;50.50
38265;DHT22;24062;47.480;8.768;2022-08-05T08:15:08;31.80;50.70
38265;DHT22;24062;47.480;8.768;2022-08-05T08:17:36;32.20;50.40
38265;DHT22;24062;47.480;8.768;2022-08-05T08:20:03;32.40;49.90
38265;DHT22;24062;47.480;8.768;2022-08-05T08:22:31;32.40;49.40
38265;DHT22;24062;47.480;8.768;2022-08-05T08:24:58;32.40;49.10
38265;DHT22;24062;47.480;8.768;2022-08-05T08:27:27;32.30;49.00
38265;DHT22;24062;47.480;8.768;2022-08-05T08:29:55;32.20;48.40
38265;DHT22;24062;47.480;8.768;2022-08-05T08:32:22;32.10;48.30
38265;DHT22;24062;47.480;8.768;2022-08-05T08:34:49;32.20;48.30
38265;DHT22;24062;47.480;8.768;2022-08-05T08:37:16;32.20;48.40
38265;DHT22;24062;47.480;8.768;2022-08-05T08:39:43;32.30;49.00
38265;DHT22;24062;47.480;8.768;2022-08-05T08:42:11;32.40;48.30
38265;DHT22;24062;47.480;8.768;2022-08-05T08:44:40;32.50;48.20
38265;DHT22;24062;47.480;8.768;2022-08-05T08:47:08;32.50;47.90
38265;DHT22;24062;47.480;8.768;2022-08-05T08:49:35;32.60;48.00
38265;DHT22;24062;47.480;8.768;2022-08-05T08:52:10;32.60;47.80
38265;DHT22;24062;47.480;8.768;2022-08-05T08:54:37;32.70;47.70
38265;DHT22;24062;47.480;8.768;2022-08-05T08:57:05;32.80;47.60
38265;DHT22;24062;47.480;8.768;2022-08-05T08:59:33;32.90;47.30
38265;DHT22;24062;47.480;8.768;2022-08-05T09:02:04;32.90;46.90
38265;DHT22;24062;47.480;8.768;2022-08-05T09:04:33;32.90;46.40
38265;DHT22;24062;47.480;8.768;2022-08-05T09:07:03;32.90;46.30
38265;DHT22;24062;47.480;8.768;2022-08-05T09:09:30;33.00;46.40
38265;DHT22;24062;47.480;8.768;2022-08-05T09:11:57;33.10;46.00
38265;DHT22;24062;47.480;8.768;2022-08-05T09:14:24;33.10;46.00
38265;DHT22;24062;47.480;8.768;2022-08-05T09:16:52;33.20;45.80
38265;DHT22;24062;47.480;8.768;2022-08-05T09:19:20;33.30;45.70
38265;DHT22;24062;47.480;8.768;2022-08-05T09:21:47;33.40;45.30
38265;DHT22;24062;47.480;8.768;2022-08-05T09:24:14;33.30;45.20
38265;DHT22;24062;47.480;8.768;2022-08-05T09:26:45;33.30;45.20
38265;DHT22;24062;47.480;8.768;2022-08-05T09:29:12;33.20;45.10
38265;DHT22;24062;47.480;8.768;2022-08-05T09:31:39;33.20;44.80
38265;DHT22;24062;47.480;8.768;2022-08-05T09:34:09;33.30;45.10
38265;DHT22;24062;47.480;8.768;2022-08-05T09:36:40;33.50;45.00
38265;DHT22;24062;47.480;8.768;2022-08-05T09:39:10;33.60;45.00
38265;DHT22;24062;47.480;8.768;2022-08-05T09:41:55;33.70;44.80
38265;DHT22;24062;47.480;8.768;2022-08-05T09:44:39;33.80;44.60
38265;DHT22;24062;47.480;8.768;2022-08-05T09:47:08;33.80;44.60
38265;DHT22;24062;47.480;8.768;2022-08-05T09:49:40;33.90;44.40
38265;DHT22;24062;47.480;8.768;2022-08-05T09:52:22;33.90;44.40
38265;DHT22;24062;47.480;8.768;2022-08-05T09:54:57;33.90;44.20
38265;DHT22;24062;47.480;8.768;2022-08-05T09:57:33;34.00;44.40
38265;DHT22;24062;47.480;8.768;2022-08-05T10:00:03;34.10;44.50
38265;DHT22;24062;47.480;8.768;2022-08-05T10:02:32;34.30;44.30
38265;DHT22;24062;47.480;8.768;2022-08-05T10:05:06;34.30;44.70
38265;DHT22;24062;47.480;8.768;2022-08-05T10:07:51;34.30;44.00
38265;DHT22;24062;47.480;8.768;2022-08-05T10:10:20;34.30;44.00
38265;DHT22;24062;47.480;8.768;2022-08-05T10:12:50;34.30;43.60
38265;DHT22;24062;47.480;8.768;2022-08-05T10:15:22;34.40;43.70
38265;DHT22;24062;47.480;8.768;2022-08-05T10:18:17;34.50;43.70
38265;DHT22;24062;47.480;8.768;2022-08-05T10:20:48;34.60;44.10
38265;DHT22;24062;47.480;8.768;2022-08-05T10:23:18;34.80;44.00
38265;DHT22;24062;47.480;8.768;2022-08-05T10:25:46;34.90;44.00
38265;DHT22;24062;47.480;8.768;2022-08-05T10:28:13;35.00;43.70
38265;DHT22;24062;47.480;8.768;2022-08-05T10:30:40;35.10;43.70
38265;DHT22;24062;47.480;8.768;2022-08-05T10:33:07;35.10;43.50
38265;DHT22;24062;47.480;8.768;2022-08-05T10:35:34;35.10;43.50
38265;DHT22;24062;47.480;8.768;2022-08-05T10:38:03;35.20;43.20
38265;DHT22;24062;47.480;8.768;2022-08-05T10:40:34;35.20;43.10
38265;DHT22;24062;47.480;8.768;2022-08-05T10:43:08;35.30;43.30
38265;DHT22;24062;47.480;8.768;2022-08-05T10:45:37;35.60;43.40
38265;DHT22;24062;47.480;8.768;2022-08-05T10:48:33;35.90;43.50
38265;DHT22;24062;47.480;8.768;2022-08-05T10:51:02;36.20;43.20
38265;DHT22;24062;47.480;8.768;2022-08-05T10:53:51;36.40;42.70
38265;DHT22;24062;47.480;8.768;2022-08-05T10:56:22;36.50;42.70
38265;DHT22;24062;47.480;8.768;2022-08-05T10:59:00;36.50;42.10
38265;DHT22;24062;47.480;8.768;2022-08-05T11:01:31;36.50;42.30
38265;DHT22;24062;47.480;8.768;2022-08-05T11:03:59;36.60;42.30
38265;DHT22;24062;47.480;8.768;2022-08-05T11:06:27;36.70;42.30
38265;DHT22;24062;47.480;8.768;2022-08-05T11:09:16;36.80;42.10
38265;DHT22;24062;47.480;8.768;2022-08-05T11:11:45;36.90;41.90
38265;DHT22;24062;47.480;8.768;2022-08-05T11:14:22;37.10;41.80
38265;DHT22;24062;47.480;8.768;2022-08-05T11:19:57;37.30;41.50
38265;DHT22;24062;47.480;8.768;2022-08-05T11:22:38;37.50;41.50
38265;DHT22;24062;47.480;8.768;2022-08-05T11:25:30;37.70;41.40
38265;DHT22;24062;47.480;8.768;2022-08-05T11:31:32;38.20;41.40
38265;DHT22;24062;47.480;8.768;2022-08-05T11:34:05;38.10;40.90
38265;DHT22;24062;47.480;8.768;2022-08-05T11:36:44;38.20;40.90
38265;DHT22;24062;47.480;8.768;2022-08-05T11:39:13;38.10;40.90
38265;DHT22;24062;47.480;8.768;2022-08-05T11:41:40;38.00;40.60
38265;DHT22;24062;47.480;8.768;2022-08-05T11:44:09;38.00;41.00
38265;DHT22;24062;47.480;8.768;2022-08-05T11:46:41;38.10;41.00
38265;DHT22;24062;47.480;8.768;2022-08-05T11:49:11;38.30;41.30
38265;DHT22;24062;47.480;8.768;2022-08-05T11:51:40;38.50;40.90
38265;DHT22;24062;47.480;8.768;2022-08-05T11:54:12;38.70;40.80
38265;DHT22;24062;47.480;8.768;2022-08-05T11:56:43;38.80;40.70
38265;DHT22;24062;47.480;8.768;2022-08-05T11:59:15;38.70;40.30
38265;DHT22;24062;47.480;8.768;2022-08-05T12:01:54;38.80;40.30
38265;DHT22;24062;47.480;8.768;2022-08-05T12:04:21;38.80;40.30
38265;DHT22;24062;47.480;8.768;2022-08-05T12:06:48;38.80;40.30
38265;DHT22;24062;47.480;8.768;2022-08-05T12:09:18;38.80;39.80
38265;DHT22;24062;47.480;8.768;2022-08-05T12:11:46;38.80;40.10
38265;DHT22;24062;47.480;8.768;2022-08-05T12:14:13;38.90;40.30
38265;DHT22;24062;47.480;8.768;2022-08-05T12:16:42;39.10;40.10
38265;DHT22;24062;47.480;8.768;2022-08-05T12:19:13;39.20;40.10
38265;DHT22;24062;47.480;8.768;2022-08-05T12:21:45;39.60;40.40
38265;DHT22;24062;47.480;8.768;2022-08-05T12:24:14;39.90;40.10
38265;DHT22;24062;47.480;8.768;2022-08-05T12:26:44;40.10;39.90
38265;DHT22;24062;47.480;8.768;2022-08-05T12:29:12;40.20;39.50
38265;DHT22;24062;47.480;8.768;2022-08-05T12:31:44;40.20;39.50
38265;DHT22;24062;47.480;8.768;2022-08-05T12:34:12;40.40;39.50
38265;DHT22;24062;47.480;8.768;2022-08-05T12:36:40;40.50;39.40
38265;DHT22;24062;47.480;8.768;2022-08-05T12:39:07;40.80;39.60
38265;DHT22;24062;47.480;8.768;2022-08-05T12:41:37;41.10;39.60
38265;DHT22;24062;47.480;8.768;2022-08-05T12:44:06;41.30;39.40
38265;DHT22;24062;47.480;8.768;2022-08-05T12:46:35;41.50;39.20
38265;DHT22;24062;47.480;8.768;2022-08-05T12:49:05;41.90;39.50
38265;DHT22;24062;47.480;8.768;2022-08-05T12:51:44;42.70;39.30
38265;DHT22;24062;47.480;8.768;2022-08-05T12:54:18;42.70;38.00
38265;DHT22;24062;47.480;8.768;2022-08-05T12:56:50;43.10;38.50
38265;DHT22;24062;47.480;8.768;2022-08-05T12:59:18;44.00;38.30
38265;DHT22;24062;47.480;8.768;2022-08-05T13:01:53;45.10;38.00
38265;DHT22;24062;47.480;8.768;2022-08-05T13:04:20;46.50;37.40
38265;DHT22;24062;47.480;8.768;2022-08-05T13:06:49;47.90;36.20
38265;DHT22;24062;47.480;8.768;2022-08-05T13:09:16;49.30;35.60
38265;DHT22;24062;47.480;8.768;2022-08-05T13:11:43;50.70;34.80
38265;DHT22;24062;47.480;8.768;2022-08-05T13:14:14;51.20;32.50
38265;DHT22;24062;47.480;8.768;2022-08-05T13:16:46;51.40;32.70
38265;DHT22;24062;47.480;8.768;2022-08-05T13:19:13;52.80;32.00
38265;DHT22;24062;47.480;8.768;2022-08-05T13:21:40;54.00;31.20
38265;DHT22;24062;47.480;8.768;2022-08-05T13:24:08;55.20;30.90
38265;DHT22;24062;47.480;8.768;2022-08-05T13:26:35;56.10;30.00
38265;DHT22;24062;47.480;8.768;2022-08-05T13:29:02;56.60;29.60
38265;DHT22;24062;47.480;8.768;2022-08-05T13:31:29;57.00;28.80
38265;DHT22;24062;47.480;8.768;2022-08-05T13:33:56;56.70;28.70
38265;DHT22;24062;47.480;8.768;2022-08-05T13:36:23;57.50;28.70
38265;DHT22;24062;47.480;8.768;2022-08-05T13:38:50;58.00;28.30
38265;DHT22;24062;47.480;8.768;2022-08-05T13:41:18;58.50;28.10
38265;DHT22;24062;47.480;8.768;2022-08-05T13:43:45;59.20;28.00
38265;DHT22;24062;47.480;8.768;2022-08-05T13:46:13;59.70;27.90
38265;DHT22;24062;47.480;8.768;2022-08-05T13:48:40;60.10;27.80
38265;DHT22;24062;47.480;8.768;2022-08-05T13:51:08;60.60;27.90
38265;DHT22;24062;47.480;8.768;2022-08-05T13:53:35;61.40;27.90
38265;DHT22;24062;47.480;8.768;2022-08-05T13:56:03;62.20;27.90
38265;DHT22;24062;47.480;8.768;2022-08-05T13:58:31;63.00;27.80
38265;DHT22;24062;47.480;8.768;2022-08-05T14:00:58;60.50;26.50
38265;DHT22;24062;47.480;8.768;2022-08-05T14:03:25;57.10;26.30
38265;DHT22;24062;47.480;8.768;2022-08-05T14:05:53;55.60;27.00
38265;DHT22;24062;47.480;8.768;2022-08-05T14:08:19;55.40;27.30
38265;DHT22;24062;47.480;8.768;2022-08-05T14:10:46;56.40;27.70
38265;DHT22;24062;47.480;8.768;2022-08-05T14:13:13;56.90;27.20
38265;DHT22;24062;47.480;8.768;2022-08-05T14:15:41;55.20;26.80
38265;DHT22;24062;47.480;8.768;2022-08-05T14:18:08;53.00;26.80
38265;DHT22;24062;47.480;8.768;2022-08-05T14:20:35;51.30;27.10
38265;DHT22;24062;47.480;8.768;2022-08-05T14:23:02;51.00;27.90
38265;DHT22;24062;47.480;8.768;2022-08-05T14:25:28;51.80;28.00
38265;DHT22;24062;47.480;8.768;2022-08-05T14:27:55;50.90;27.70
38265;DHT22;24062;47.480;8.768;2022-08-05T14:30:22;49.80;27.90
38265;DHT22;24062;47.480;8.768;2022-08-05T14:32:52;49.10;28.20
38265;DHT22;24062;47.480;8.768;2022-08-05T14:35:19;50.70;29.30
38265;DHT22;24062;47.480;8.768;2022-08-05T14:37:45;52.80;29.20
38265;DHT22;24062;47.480;8.768;2022-08-05T14:40:12;54.10;28.70
38265;DHT22;24062;47.480;8.768;2022-08-05T14:42:39;55.20;28.60
38265;DHT22;24062;47.480;8.768;2022-08-05T14:45:07;55.70;28.30
38265;DHT22;24062;47.480;8.768;2022-08-05T14:47:35;56.50;28.40
38265;DHT22;24062;47.480;8.768;2022-08-05T14:50:04;57.00;27.90
38265;DHT22;24062;47.480;8.768;2022-08-05T14:52:31;56.40;27.50
38265;DHT22;24062;47.480;8.768;2022-08-05T14:54:58;55.70;27.70
38265;DHT22;24062;47.480;8.768;2022-08-05T14:57:24;55.80;27.80
38265;DHT22;24062;47.480;8.768;2022-08-05T14:59:51;55.90;27.50
38265;DHT22;24062;47.480;8.768;2022-08-05T15:02:18;55.10;27.00
38265;DHT22;24062;47.480;8.768;2022-08-05T15:04:45;53.70;26.70
38265;DHT22;24062;47.480;8.768;2022-08-05T15:07:13;53.60;27.30
38265;DHT22;24062;47.480;8.768;2022-08-05T15:09:41;54.50;27.50
38265;DHT22;24062;47.480;8.768;2022-08-05T15:12:08;55.70;27.50
38265;DHT22;24062;47.480;8.768;2022-08-05T15:14:35;56.90;27.30
38265;DHT22;24062;47.480;8.768;2022-08-05T15:17:02;57.40;26.70
38265;DHT22;24062;47.480;8.768;2022-08-05T15:19:29;57.20;26.70
38265;DHT22;24062;47.480;8.768;2022-08-05T15:21:56;57.30;26.70
38265;DHT22;24062;47.480;8.768;2022-08-05T15:24:26;57.60;27.00
38265;DHT22;24062;47.480;8.768;2022-08-05T15:26:54;56.80;26.40
38265;DHT22;24062;47.480;8.768;2022-08-05T15:29:20;54.70;26.30
38265;DHT22;24062;47.480;8.768;2022-08-05T15:31:48;54.90;27.20
38265;DHT22;24062;47.480;8.768;2022-08-05T15:34:14;55.00;26.80
38265;DHT22;24062;47.480;8.768;2022-08-05T15:36:41;55.30;27.20
38265;DHT22;24062;47.480;8.768;2022-08-05T15:39:08;56.20;27.40
38265;DHT22;24062;47.480;8.768;2022-08-05T15:41:36;56.30;27.10
38265;DHT22;24062;47.480;8.768;2022-08-05T15:44:03;55.80;26.80
38265;DHT22;24062;47.480;8.768;2022-08-05T15:46:30;53.30;26.10
38265;DHT22;24062;47.480;8.768;2022-08-05T15:48:57;50.90;26.30